Time;durP1;ratioP1;P1;durP2;ratioP2;P2;SDS_P1;SDS_P2;PMS_P1;PMS_P2;Temp;Humidity;BMP_temperature;BMP_pressure;BME280_temperature;BME280_humidity;BME280_pressure;Samples;Min_cycle;Max_cycle;Signal;HPM_P1;HPM_P2
2022/09/17 00:01:21;;;;;;;6.60;2.00;;;;;;;10.63;100.00;101153.91;4968328;28;20054;-76
2022/09/17 00:03:52;;;;;;;15.10;2.67;;;;;;;10.70;100.00;101141.09;4970588;28;20081;-75
2022/09/17 00:06:18;;;;;;;15.35;2.67;;;;;;;10.70;100.00;101149.09;4975426;28;20480;-75
2022/09/17 00:08:44;;;;;;;13.05;2.35;;;;;;;10.72;100.00;101139.19;4972322;28;20582;-75
2022/09/17 00:11:22;;;;;;;11.80;2.38;;;;;;;10.75;100.00;101140.81;4968226;28;20043;-75
2022/09/17 00:13:49;;;;;;;9.48;2.42;;;;;;;10.70;100.00;101134.91;4988852;28;20678;-74
2022/09/17 00:16:40;;;;;;;20.05;3.55;;;;;;;10.74;100.00;101147.94;4976063;28;20084;-75
2022/09/17 00:19:11;;;;;;;13.95;2.17;;;;;;;10.76;100.00;101145.19;4971349;28;20074;-75
2022/09/17 00:21:36;;;;;;;20.48;2.85;;;;;;;10.88;100.00;101147.97;4979483;28;20058;-76
2022/09/17 00:24:04;;;;;;;19.27;4.20;;;;;;;10.88;100.00;101157.78;4965062;28;20495;-75
2022/09/17 00:26:31;;;;;;;14.45;3.30;;;;;;;10.91;100.00;101162.09;4978063;28;20061;-76
2022/09/17 00:28:57;;;;;;;12.18;2.67;;;;;;;10.93;100.00;101162.84;4973501;28;20041;-75
2022/09/17 00:31:23;;;;;;;16.17;3.03;;;;;;;10.89;100.00;101167.50;4984797;28;20064;-76
2022/09/17 00:33:49;;;;;;;25.70;3.33;;;;;;;10.83;100.00;101163.41;4974698;28;20093;-75
2022/09/17 00:36:15;;;;;;;11.95;2.83;;;;;;;10.86;100.00;101163.22;4969881;28;20054;-76
2022/09/17 00:38:40;;;;;;;15.77;2.30;;;;;;;10.81;100.00;101161.78;4966945;28;20059;-75
2022/09/17 00:41:06;;;;;;;13.35;2.42;;;;;;;10.87;100.00;101159.59;4988601;28;20046;-76
2022/09/17 00:43:41;;;;;;;14.63;3.50;;;;;;;10.84;100.00;101156.25;4974250;28;20041;-75
2022/09/17 00:46:34;;;;;;;17.10;2.88;;;;;;;10.81;100.00;101169.78;4970436;28;20681;-76
2022/09/17 00:49:11;;;;;;;18.20;3.13;;;;;;;10.76;100.00;101166.53;4974742;28;20050;-75
2022/09/17 00:51:44;;;;;;;20.40;2.42;;;;;;;10.77;100.00;101181.59;4969327;28;20101;-75
2022/09/17 00:54:10;;;;;;;;;;;;;;;10.76;100.00;101179.88;4973907;28;20145;-76
2022/09/17 00:56:38;;;;;;;19.17;2.45;;;;;;;10.80;100.00;101176.94;4968557;28;20021;-75
2022/09/17 00:59:04;;;;;;;14.30;2.08;;;;;;;10.81;100.00;101175.97;4978946;28;20076;-76
2022/09/17 01:01:30;;;;;;;24.00;3.42;;;;;;;10.82;100.00;101182.19;4976732;28;20872;-76
2022/09/17 01:03:56;;;;;;;24.25;2.95;;;;;;;10.79;100.00;101185.91;4980300;28;20065;-75
2022/09/17 01:06:33;;;;;;;18.77;2.33;;;;;;;10.74;100.00;101177.28;4968209;28;20047;-75
2022/09/17 01:09:23;;;;;;;16.00;2.67;;;;;;;10.69;100.00;101179.34;4972924;28;20046;-75
2022/09/17 01:12:47;;;;;;;11.57;2.88;;;;;;;10.67;100.00;101165.25;4992856;28;20081;-75
2022/09/17 01:15:24;;;;;;;10.93;3.25;;;;;;;10.69;100.00;101175.81;4939198;28;20043;-74
2022/09/17 01:17:58;;;;;;;17.13;3.30;;;;;;;10.66;100.00;101178.69;4933078;28;20139;-75
2022/09/17 01:20:53;;;;;;;19.30;2.70;;;;;;;10.70;100.00;101177.56;4941952;28;20055;-74
2022/09/17 01:23:56;;;;;;;20.17;3.42;;;;;;;10.62;100.00;101183.34;4942107;28;20989;-75
2022/09/17 01:26:49;;;;;;;23.70;2.58;;;;;;;10.55;100.00;101182.00;4935425;28;20063;-74
2022/09/17 01:29:14;;;;;;;;;;;;;;;10.47;100.00;101184.22;4940600;28;20043;-75
2022/09/17 01:32:14;;;;;;;11.73;2.28;;;;;;;10.43;100.00;101183.53;4935383;28;19922;-76
2022/09/17 01:34:49;;;;;;;15.43;2.97;;;;;;;10.42;100.00;101192.50;4927500;29;20627;-75
2022/09/17 01:37:31;;;;;;;12.90;2.75;;;;;;;10.49;100.00;101195.66;4937616;28;20128;-74
2022/09/17 01:40:17;;;;;;;23.42;4.38;;;;;;;10.48;100.00;101205.47;4935340;28;20066;-74
2022/09/17 01:42:53;;;;;;;9.88;2.10;;;;;;;10.53;100.00;101205.19;4928260;29;20082;-75
2022/09/17 01:45:26;;;;;;;14.25;2.38;;;;;;;10.55;100.00;101201.50;4939443;28;20557;-75
2022/09/17 01:48:16;;;;;;;10.57;2.05;;;;;;;10.59;100.00;101207.50;4970715;28;20047;-74
2022/09/17 01:51:03;;;;;;;30.20;3.13;;;;;;;10.68;100.00;101212.31;4986296;28;20051;-75
2022/09/17 01:53:37;;;;;;;18.73;2.28;;;;;;;10.72;100.00;101210.34;4965611;28;20047;-75
2022/09/17 01:56:04;;;;;;;16.27;3.50;;;;;;;10.75;100.00;101207.50;4968609;28;20081;-75
2022/09/17 01:58:42;;;;;;;11.00;2.10;;;;;;;10.76;100.00;101207.41;4979662;28;20046;-75
2022/09/17 02:01:11;;;;;;;11.40;1.83;;;;;;;10.68;100.00;101198.97;4971583;28;20030;-75
2022/09/17 02:03:48;;;;;;;13.68;2.45;;;;;;;10.63;100.00;101199.25;4969803;28;20046;-75
2022/09/17 02:06:19;;;;;;;13.80;3.00;;;;;;;10.59;100.00;101207.50;4978611;28;20070;-75
2022/09/17 02:08:55;;;;;;;13.77;2.50;;;;;;;10.57;100.00;101220.06;4968552;28;20138;-76
2022/09/17 02:11:21;;;;;;;8.88;1.60;;;;;;;10.52;100.00;101216.81;4971184;28;20101;-75
2022/09/17 02:13:57;;;;;;;11.88;2.08;;;;;;;10.43;100.00;101210.19;4972203;28;20395;-75
2022/09/17 02:16:40;;;;;;;7.97;1.85;;;;;;;10.44;100.00;101214.59;4969534;28;20062;-76
2022/09/17 02:19:14;;;;;;;19.40;2.15;;;;;;;10.38;100.00;101215.78;4972770;28;20054;-76
2022/09/17 02:21:48;;;;;;;11.68;1.98;;;;;;;10.40;100.00;101215.72;4967457;28;20042;-76
2022/09/17 02:24:24;;;;;;;20.48;2.17;;;;;;;10.42;100.00;101226.28;4981260;28;20066;-77
2022/09/17 02:27:02;;;;;;;11.75;2.08;;;;;;;10.45;100.00;101226.13;4970660;28;20399;-77
2022/09/17 02:29:37;;;;;;;8.57;1.63;;;;;;;10.48;100.00;101225.94;4973970;28;20501;-76
2022/09/17 02:32:04;;;;;;;17.67;2.97;;;;;;;10.48;100.00;101229.47;4972927;28;20043;-75
2022/09/17 02:34:30;;;;;;;18.70;3.75;;;;;;;10.46;100.00;101222.50;4986212;28;20090;-76
2022/09/17 02:36:58;;;;;;;9.80;1.85;;;;;;;10.46;100.00;101222.50;4973934;28;20113;-76
2022/09/17 02:39:24;;;;;;;11.50;1.95;;;;;;;10.47;100.00;101222.41;4984554;28;20062;-76
2022/09/17 02:42:16;;;;;;;8.32;2.10;;;;;;;10.43;100.00;101225.34;4968469;28;20880;-75
2022/09/17 02:45:03;;;;;;;12.98;2.08;;;;;;;10.37;100.00;101223.88;4963879;28;20134;-76
2022/09/17 02:47:41;;;;;;;9.32;1.83;;;;;;;10.42;100.00;101229.81;4964232;28;20046;-76
2022/09/17 02:50:33;;;;;;;14.00;2.65;;;;;;;10.45;100.00;101245.66;4971405;28;20046;-76
2022/09/17 02:53:17;;;;;;;9.40;1.75;;;;;;;10.46;100.00;101251.84;4979013;28;20045;-76
2022/09/17 02:56:05;;;;;;;14.00;2.95;;;;;;;10.50;100.00;101264.91;4979074;28;20162;-76
2022/09/17 02:58:44;;;;;;;7.50;1.90;;;;;;;10.28;100.00;101243.91;4981004;28;20065;-76
2022/09/17 03:01:21;;;;;;;10.55;2.42;;;;;;;10.19;100.00;101233.75;4974369;28;20039;-76
2022/09/17 03:03:50;;;;;;;13.13;2.17;;;;;;;10.20;100.00;101230.13;4970942;28;20597;-76
2022/09/17 03:06:17;;;;;;;19.80;2.45;;;;;;;10.27;100.00;101228.00;4976308;28;20042;-76
2022/09/17 03:08:44;;;;;;;23.30;2.75;;;;;;;10.18;100.00;101226.66;4986066;28;20050;-77
2022/09/17 03:11:11;;;;;;;16.73;2.75;;;;;;;10.20;100.00;101223.94;4988069;28;20038;-76
2022/09/17 03:13:37;;;;;;;17.73;3.55;;;;;;;10.26;100.00;101231.63;4981074;28;20038;-77
2022/09/17 03:16:04;;;;;;;13.48;2.75;;;;;;;10.26;100.00;101229.81;4977541;28;20140;-77
2022/09/17 03:18:30;;;;;;;23.77;4.30;;;;;;;10.31;100.00;101237.56;4978635;28;20051;-78
2022/09/17 03:20:55;;;;;;;16.25;2.28;;;;;;;10.24;100.00;101239.72;4985255;28;20042;-77
2022/09/17 03:23:21;;;;;;;12.35;2.20;;;;;;;10.18;100.00;101245.31;4975423;28;20039;-76
2022/09/17 03:25:48;;;;;;;17.00;3.22;;;;;;;10.12;100.00;101241.19;4970426;28;20045;-76
2022/09/17 03:28:14;;;;;;;13.07;2.13;;;;;;;10.10;100.00;101242.25;4978421;28;20591;-76
2022/09/17 03:30:42;;;;;;;9.30;2.08;;;;;;;9.96;100.00;101235.00;4980687;28;20051;-77
2022/09/17 03:33:08;;;;;;;17.38;3.00;;;;;;;9.88;100.00;101229.22;4988436;28;20064;-77
2022/09/17 03:35:33;;;;;;;19.55;2.40;;;;;;;9.81;100.00;101227.84;4982293;28;20039;-77
2022/09/17 03:37:59;;;;;;;13.40;2.95;;;;;;;9.80;100.00;101220.81;4999778;28;20092;-78
2022/09/17 03:40:24;;;;;;;16.98;3.28;;;;;;;9.71;100.00;101219.47;4982277;28;20034;-76
2022/09/17 03:42:50;;;;;;;22.80;3.03;;;;;;;9.61;100.00;101218.25;4977218;28;20585;-77
2022/09/17 03:45:15;;;;;;;21.52;3.55;;;;;;;9.63;100.00;101215.50;4978147;28;20067;-76
2022/09/17 03:47:40;;;;;;;28.70;3.13;;;;;;;9.61;100.00;101218.25;4980429;28;20054;-76
2022/09/17 03:50:07;;;;;;;17.48;3.13;;;;;;;9.57;100.00;101222.88;4981418;28;20038;-76
2022/09/17 03:52:32;;;;;;;18.35;3.08;;;;;;;9.58;100.00;101221.94;4981189;28;20056;-76
2022/09/17 03:54:57;;;;;;;21.42;3.08;;;;;;;9.54;100.00;101227.53;4982227;28;20043;-77
2022/09/17 03:57:23;;;;;;;22.35;2.85;;;;;;;9.62;100.00;101224.44;4976138;28;20054;-76
2022/09/17 03:59:48;;;;;;;20.67;3.50;;;;;;;9.58;100.00;101237.03;4981475;28;20592;-76
2022/09/17 04:02:14;;;;;;;27.95;2.78;;;;;;;9.69;100.00;101237.34;4976848;28;20052;-76
2022/09/17 04:04:39;;;;;;;16.65;2.90;;;;;;;9.80;100.00;101256.28;4999071;28;20042;-77
2022/09/17 04:07:05;;;;;;;16.98;3.28;;;;;;;9.89;100.00;101244.28;4985720;28;20093;-77
2022/09/17 04:09:30;;;;;;;26.02;4.00;;;;;;;9.77;100.00;101242.25;4985415;28;20081;-76
2022/09/17 04:11:56;;;;;;;14.10;3.00;;;;;;;9.79;100.00;101251.91;4989150;28;20066;-76
2022/09/17 04:14:21;;;;;;;16.63;2.55;;;;;;;9.84;100.00;101263.16;4982455;28;20082;-77
2022/09/17 04:16:47;;;;;;;26.60;3.50;;;;;;;9.87;100.00;101259.47;4980797;28;20038;-77
2022/09/17 04:19:12;;;;;;;18.08;3.78;;;;;;;9.85;100.00;101259.56;4980005;28;20042;-76
2022/09/17 04:21:37;;;;;;;17.90;3.42;;;;;;;9.80;100.00;101264.28;4976741;28;20035;-76
2022/09/17 04:24:03;;;;;;;18.45;3.40;;;;;;;9.77;100.00;101268.88;4978296;28;20450;-78
2022/09/17 04:26:28;;;;;;;23.17;3.45;;;;;;;9.85;100.00;101267.56;4990782;28;20053;-76
2022/09/17 04:28:54;;;;;;;19.30;2.88;;;;;;;9.81;100.00;101273.13;4981103;28;20031;-76
2022/09/17 04:31:21;;;;;;;16.17;2.60;;;;;;;9.75;100.00;101263.66;4975429;28;20039;-76
2022/09/17 04:33:46;;;;;;;12.85;3.55;;;;;;;9.77;100.00;101263.56;4985036;28;20034;-76
2022/09/17 04:36:12;;;;;;;20.15;3.78;;;;;;;9.72;100.00;101262.94;4980693;28;20063;-76
2022/09/17 04:38:37;;;;;;;15.00;3.45;;;;;;;9.74;100.00;101258.38;4977791;28;20482;-75
2022/09/17 04:41:06;;;;;;;9.88;2.40;;;;;;;9.60;100.00;101260.00;4977731;28;20400;-76
2022/09/17 04:43:31;;;;;;;17.50;3.78;;;;;;;9.61;100.00;101260.84;4977530;28;20428;-76
2022/09/17 04:45:57;;;;;;;15.63;3.50;;;;;;;9.33;100.00;101259.63;4983297;28;20038;-76
2022/09/17 04:48:22;;;;;;;29.15;5.38;;;;;;;9.39;100.00;101253.13;4981557;28;20502;-76
2022/09/17 04:50:48;;;;;;;27.83;2.92;;;;;;;9.27;100.00;101245.78;4969814;28;20054;-76
2022/09/17 04:53:13;;;;;;;11.70;3.33;;;;;;;9.36;100.00;101239.97;4980423;28;20061;-77
2022/09/17 04:55:39;;;;;;;25.00;3.83;;;;;;;9.23;100.00;101242.41;4978403;28;20035;-76
2022/09/17 04:58:04;;;;;;;17.77;3.47;;;;;;;9.20;100.00;101236.41;4968234;28;20070;-76
2022/09/17 05:00:30;;;;;;;12.98;2.92;;;;;;;9.18;100.00;101235.59;4972983;28;20097;-76
2022/09/17 05:02:55;;;;;;;15.15;3.70;;;;;;;9.18;100.00;101244.44;4977077;28;20109;-76
2022/09/17 05:05:22;;;;;;;14.43;2.75;;;;;;;9.16;100.00;101242.81;4971365;28;20097;-76
2022/09/17 05:07:47;;;;;;;14.10;3.47;;;;;;;9.18;100.00;101252.41;4966816;28;20375;-76
2022/09/17 05:10:16;;;;;;;15.68;2.83;;;;;;;9.18;100.00;101260.41;4971235;28;20023;-77
2022/09/17 05:12:55;;;;;;;14.55;3.38;;;;;;;9.12;100.00;101259.88;4970497;28;20735;-77
2022/09/17 05:15:23;;;;;;;22.45;3.63;;;;;;;9.14;100.00;101256.19;4978908;28;20178;-76
2022/09/17 05:17:49;;;;;;;12.93;3.17;;;;;;;9.18;100.00;101259.53;4968659;28;20046;-76
2022/09/17 05:20:15;;;;;;;22.35;4.38;;;;;;;9.31;100.00;101265.97;4973686;28;20078;-76
2022/09/17 05:22:46;;;;;;;19.90;3.47;;;;;;;9.27;100.00;101273.25;4972734;28;20046;-76
2022/09/17 05:25:13;;;;;;;19.63;5.07;;;;;;;9.18;100.00;101280.81;4972776;28;20169;-77
2022/09/17 05:27:39;;;;;;;14.77;3.30;;;;;;;9.24;100.00;101280.53;4990517;28;20042;-76
2022/09/17 05:30:05;;;;;;;10.75;3.15;;;;;;;9.25;100.00;101284.91;4972779;28;20035;-77
2022/09/17 05:32:31;;;;;;;17.88;4.40;;;;;;;9.20;100.00;101289.63;4967425;28;20365;-77
2022/09/17 05:34:56;;;;;;;21.63;3.67;;;;;;;9.24;100.00;101292.03;4975061;28;20045;-77
2022/09/17 05:37:22;;;;;;;16.73;3.65;;;;;;;9.25;100.00;101298.22;4973061;28;20059;-76
2022/09/17 05:39:47;;;;;;;15.93;2.92;;;;;;;9.23;100.00;101297.41;4972282;28;20056;-77
2022/09/17 05:42:14;;;;;;;22.25;4.75;;;;;;;9.27;100.00;101301.66;4978047;28;20053;-77
2022/09/17 05:44:39;;;;;;;16.20;3.90;;;;;;;9.23;100.00;101292.97;4968026;28;20066;-77
2022/09/17 05:47:05;;;;;;;19.35;2.80;;;;;;;9.22;100.00;101303.69;4981947;28;20042;-77
2022/09/17 05:49:30;;;;;;;15.48;2.83;;;;;;;9.29;100.00;101299.78;4977157;28;20093;-76
2022/09/17 05:51:55;;;;;;;19.30;2.90;;;;;;;9.33;100.00;101298.69;4972504;28;20045;-78
2022/09/17 05:54:21;;;;;;;11.00;2.85;;;;;;;9.32;100.00;101302.28;4970950;28;20708;-77
2022/09/17 05:56:46;;;;;;;16.35;2.70;;;;;;;9.36;100.00;101284.38;4974085;28;20046;-77
2022/09/17 05:59:13;;;;;;;13.73;3.80;;;;;;;9.37;100.00;101289.59;4976098;28;20042;-77
2022/09/17 06:01:39;;;;;;;17.73;2.97;;;;;;;9.50;100.00;101287.19;4966585;28;20042;-77
2022/09/17 06:04:04;;;;;;;16.75;3.53;;;;;;;9.75;100.00;101300.09;4969358;28;20671;-77
2022/09/17 06:06:29;;;;;;;14.70;2.63;;;;;;;9.77;100.00;101299.03;4971427;28;20094;-75
2022/09/17 06:08:58;;;;;;;8.90;2.75;;;;;;;9.64;100.00;101332.59;4969930;28;20804;-76
2022/09/17 06:11:24;;;;;;;17.50;3.17;;;;;;;9.53;100.00;101343.78;4976421;28;20046;-77
2022/09/17 06:13:53;;;;;;;10.18;2.30;;;;;;;9.48;100.00;101331.63;4971796;28;20042;-76
2022/09/17 06:16:20;;;;;;;20.63;2.90;;;;;;;9.59;100.00;101321.31;4969553;28;20802;-76
2022/09/17 06:18:46;;;;;;;13.73;3.30;;;;;;;9.56;100.00;101324.13;4973500;28;20070;-77
2022/09/17 06:21:11;;;;;;;21.05;5.22;;;;;;;9.49;100.00;101314.75;4977509;28;20054;-77
2022/09/17 06:23:37;;;;;;;20.13;4.13;;;;;;;9.63;100.00;101322.00;4977699;28;20804;-77
2022/09/17 06:26:04;;;;;;;13.55;4.30;;;;;;;9.54;100.00;101323.38;4978899;28;20046;-77
2022/09/17 06:28:31;;;;;;;14.35;4.22;;;;;;;9.58;100.00;101316.91;4973115;28;20126;-76
2022/09/17 06:31:01;;;;;;;11.60;3.30;;;;;;;9.45;100.00;101318.50;4976321;28;20042;-77
2022/09/17 06:33:26;;;;;;;18.65;4.00;;;;;;;9.67;100.00;101326.25;4974966;28;20038;-77
2022/09/17 06:35:56;;;;;;;13.98;3.70;;;;;;;9.95;100.00;101321.19;4976821;28;20057;-77
2022/09/17 06:38:21;;;;;;;17.98;3.50;;;;;;;10.35;100.00;101316.41;4969675;28;20126;-77
2022/09/17 06:40:51;;;;;;;18.80;3.45;;;;;;;10.45;100.00;101322.09;4973146;28;20038;-77
2022/09/17 06:43:17;;;;;;;13.73;4.00;;;;;;;10.63;100.00;101319.25;4976876;28;20146;-77
2022/09/17 06:45:42;;;;;;;10.07;2.85;;;;;;;11.21;100.00;101320.41;4981941;28;20643;-77
2022/09/17 06:48:08;;;;;;;13.57;3.17;;;;;;;11.33;100.00;101319.69;4983488;28;20092;-76
2022/09/17 06:50:33;;;;;;;22.35;3.80;;;;;;;11.11;100.00;101324.56;4982514;28;20043;-77
2022/09/17 06:52:59;;;;;;;14.60;2.75;;;;;;;11.34;100.00;101323.22;4984206;28;20047;-76
2022/09/17 06:55:24;;;;;;;9.57;2.58;;;;;;;11.85;100.00;101316.63;4977579;28;20494;-76
2022/09/17 06:57:50;;;;;;;6.35;1.92;;;;;;;12.15;100.00;101319.22;4994445;28;20062;-76
2022/09/17 07:00:15;;;;;;;11.18;1.95;;;;;;;12.47;100.00;101318.13;4975490;28;20065;-76
2022/09/17 07:02:41;;;;;;;18.52;3.38;;;;;;;12.42;100.00;101313.06;4982809;28;20047;-76
2022/09/17 07:05:06;;;;;;;13.57;3.42;;;;;;;12.61;100.00;101320.78;4976084;28;20046;-77
2022/09/17 07:07:34;;;;;;;11.85;2.10;;;;;;;13.24;100.00;101312.19;4979164;28;20066;-76
2022/09/17 07:10:00;;;;;;;7.05;1.58;;;;;;;13.47;99.79;101318.69;4973980;28;20049;-77
2022/09/17 07:12:25;;;;;;;24.25;2.40;;;;;;;12.66;100.00;101332.06;4978503;28;20034;-77
2022/09/17 07:14:51;;;;;;;23.60;6.47;;;;;;;12.19;100.00;101335.91;4978201;28;20179;-77
2022/09/17 07:17:17;;;;;;;9.40;1.58;;;;;;;12.10;100.00;101328.47;4978957;28;20538;-76
2022/09/17 07:19:42;;;;;;;12.65;2.58;;;;;;;11.83;100.00;101331.00;4981823;28;20040;-76
2022/09/17 07:22:07;;;;;;;8.88;1.67;;;;;;;11.99;100.00;101325.56;4982649;28;20050;-77
2022/09/17 07:24:34;;;;;;;14.18;2.05;;;;;;;12.40;100.00;101329.22;4969985;28;20120;-77
2022/09/17 07:27:00;;;;;;;8.90;1.75;;;;;;;13.53;100.00;101336.16;4977617;28;20042;-77
2022/09/17 07:29:26;;;;;;;7.53;1.88;;;;;;;13.26;100.00;101341.56;4982533;28;20041;-76
2022/09/17 07:31:57;;;;;;;10.52;2.15;;;;;;;12.63;100.00;101338.44;4976965;28;20042;-77
2022/09/17 07:34:22;;;;;;;5.75;1.77;;;;;;;12.80;100.00;101329.34;4973210;28;20050;-76
2022/09/17 07:36:48;;;;;;;6.28;1.52;;;;;;;13.43;100.00;101325.19;4977246;28;20043;-76
2022/09/17 07:39:13;;;;;;;6.25;1.23;;;;;;;13.36;99.98;101330.13;4978783;28;20038;-76
2022/09/17 07:41:39;;;;;;;10.30;1.88;;;;;;;13.44;100.00;101332.28;4974085;28;20033;-76
2022/09/17 07:44:08;;;;;;;5.85;1.50;;;;;;;13.01;99.18;101334.25;4976448;28;20074;-77
2022/09/17 07:46:34;;;;;;;10.43;1.40;;;;;;;12.83;100.00;101329.13;4979318;28;20128;-76
2022/09/17 07:49:00;;;;;;;11.65;1.60;;;;;;;12.74;100.00;101334.22;4977579;28;20049;-76
2022/09/17 07:51:27;;;;;;;6.82;1.40;;;;;;;13.03;100.00;101318.94;4980186;28;20035;-76
2022/09/17 07:53:54;;;;;;;8.90;1.63;;;;;;;13.43;100.00;101326.06;4976351;28;20041;-75
2022/09/17 07:56:21;;;;;;;12.18;1.73;;;;;;;13.96;99.69;101318.84;4974837;28;20078;-78
2022/09/17 07:58:46;;;;;;;8.27;1.20;;;;;;;14.14;95.90;101321.19;4977480;28;20500;-76
2022/09/17 08:01:15;;;;;;;13.23;3.15;;;;;;;14.16;94.94;101322.81;4978273;28;20050;-76
2022/09/17 08:03:42;;;;;;;9.32;1.33;;;;;;;13.78;95.51;101329.97;4977535;28;20046;-76
2022/09/17 08:06:13;;;;;;;7.15;1.95;;;;;;;13.71;97.56;101332.22;4976972;28;20038;-76
2022/09/17 08:08:40;;;;;;;15.40;2.33;;;;;;;13.34;97.46;101334.72;4976707;28;20077;-77
2022/09/17 08:11:06;;;;;;;7.20;1.75;;;;;;;13.38;98.17;101333.56;4977364;28;20572;-76
2022/09/17 08:13:32;;;;;;;8.00;1.35;;;;;;;13.93;95.63;101320.88;4976566;28;20119;-76
2022/09/17 08:16:00;;;;;;;8.88;1.70;;;;;;;14.17;94.57;101316.47;4979767;28;20125;-75
2022/09/17 08:18:26;;;;;;;6.97;1.27;;;;;;;14.42;92.47;101322.78;4971922;28;20034;-75
2022/09/17 08:20:55;;;;;;;5.47;1.20;;;;;;;14.65;90.13;101310.38;4974673;28;20062;-75
2022/09/17 08:23:20;;;;;;;8.15;1.40;;;;;;;14.98;89.68;101315.13;4976605;28;20046;-75
2022/09/17 08:25:54;;;;;;;8.95;1.60;;;;;;;15.05;88.27;101313.66;4976849;28;20081;-75
2022/09/17 08:28:20;;;;;;;11.50;1.20;;;;;;;14.67;90.58;101316.53;4967926;28;20043;-75
2022/09/17 08:30:47;;;;;;;6.18;1.00;;;;;;;14.13;92.36;101324.84;4968535;28;20053;-75
2022/09/17 08:33:12;;;;;;;4.00;1.33;;;;;;;13.71;95.57;101329.56;4975613;28;20046;-76
2022/09/17 08:35:38;;;;;;;18.20;2.03;;;;;;;13.76;97.36;101337.28;4970058;28;20058;-75
2022/09/17 08:38:03;;;;;;;12.15;1.70;;;;;;;13.36;96.53;101342.66;4976145;28;20038;-75
2022/09/17 08:40:30;;;;;;;5.00;1.35;;;;;;;13.27;97.42;101332.56;4979601;28;20046;-75
2022/09/17 08:43:01;;;;;;;10.77;2.53;;;;;;;14.10;97.26;101328.56;4979213;28;20145;-74
2022/09/17 08:45:28;;;;;;;6.65;1.15;;;;;;;14.67;94.13;101329.94;4962234;28;20507;-76
2022/09/17 08:48:09;;;;;;;5.90;1.48;;;;;;;14.65;88.88;101321.13;4972158;28;20038;-75
2022/09/17 08:50:40;;;;;;;8.50;1.48;;;;;;;15.28;85.34;101323.56;4977854;28;20042;-75
2022/09/17 08:53:25;;;;;;;9.75;1.73;;;;;;;15.32;88.16;101316.13;4970907;28;20073;-76
2022/09/17 08:56:04;;;;;;;10.80;1.52;;;;;;;15.82;85.65;101305.19;4970648;28;20046;-75
2022/09/17 08:59:07;;;;;;;7.90;1.30;;;;;;;15.32;82.32;101310.75;4965276;28;20046;-75
2022/09/17 09:02:02;;;;;;;5.85;1.92;;;;;;;15.37;82.00;101316.63;4977928;28;20042;-76
2022/09/17 09:04:55;;;;;;;10.90;2.33;;;;;;;15.42;86.47;101308.22;4964238;28;20053;-76
2022/09/17 09:07:34;;;;;;;5.75;1.25;;;;;;;15.17;83.02;101315.47;4975250;28;20487;-76
2022/09/17 09:10:16;;;;;;;8.82;1.27;;;;;;;15.98;81.58;101303.00;4964490;28;20089;-76
2022/09/17 09:12:43;;;;;;;6.47;2.00;;;;;;;15.78;79.99;101307.25;4970044;28;20034;-75
2022/09/17 09:15:32;;;;;;;5.97;1.08;;;;;;;15.50;76.80;101306.66;4972717;28;20042;-76
2022/09/17 09:18:06;;;;;;;7.15;1.30;;;;;;;16.25;76.76;101306.19;4979304;28;20038;-76
2022/09/17 09:20:57;;;;;;;11.45;3.10;;;;;;;15.74;74.18;101308.47;4973694;28;20120;-76
2022/09/17 09:23:45;;;;;;;8.38;1.83;;;;;;;15.76;76.41;101299.31;4975904;28;20045;-76
2022/09/17 09:26:20;;;;;;;16.05;3.15;;;;;;;15.99;74.68;101299.34;4975356;28;20046;-75
2022/09/17 09:29:02;;;;;;;17.48;3.50;;;;;;;16.00;72.84;101292.97;4972224;28;20077;-75
2022/09/17 09:31:28;;;;;;;13.40;2.10;;;;;;;16.13;72.28;101303.63;4975238;28;20570;-76
2022/09/17 09:33:55;;;;;;;5.63;1.48;;;;;;;15.49;73.05;101313.00;4975100;28;20049;-76
2022/09/17 09:36:20;;;;;;;7.15;1.63;;;;;;;15.82;71.70;101308.72;4965033;28;20057;-75
2022/09/17 09:39:03;;;;;;;6.13;1.20;;;;;;;16.87;69.00;101301.22;4966654;28;20034;-75
2022/09/17 09:41:47;;;;;;;8.52;1.40;;;;;;;17.06;66.30;101288.81;4971716;28;20037;-76
2022/09/17 09:44:15;;;;;;;11.85;1.85;;;;;;;16.38;68.34;101297.16;4970997;28;20570;-75
2022/09/17 09:46:49;;;;;;;8.90;1.80;;;;;;;15.82;68.27;101302.50;4964667;28;20031;-76
2022/09/17 09:49:33;;;;;;;11.93;2.50;;;;;;;15.54;72.69;101316.19;4968663;28;20053;-76
2022/09/17 09:52:33;;;;;;;6.10;0.93;;;;;;;14.61;81.45;101338.41;4970013;28;20061;-76
2022/09/17 09:55:19;;;;;;;6.13;0.80;;;;;;;12.05;100.00;101354.59;4969634;28;20153;-77
2022/09/17 09:57:57;;;;;;;2.53;1.00;;;;;;;11.14;100.00;101359.97;4974203;28;20030;-74
2022/09/17 10:00:26;;;;;;;6.72;1.20;;;;;;;11.14;100.00;101353.72;4971874;28;20068;-74
2022/09/17 10:02:58;;;;;;;20.83;3.63;;;;;;;11.51;100.00;101357.81;4973999;28;20221;-75
2022/09/17 10:05:23;;;;;;;13.48;2.08;;;;;;;11.87;100.00;101359.25;4974134;28;20050;-76
2022/09/17 10:07:49;;;;;;;10.05;1.30;;;;;;;11.91;100.00;101353.66;4967060;28;20038;-75
2022/09/17 10:10:15;;;;;;;11.52;1.20;;;;;;;11.89;100.00;101349.34;4970770;28;20492;-76
2022/09/17 10:12:40;;;;;;;2.97;0.82;;;;;;;11.70;100.00;101352.25;4973836;28;20038;-76
2022/09/17 10:15:27;;;;;;;6.55;1.15;;;;;;;11.45;100.00;101351.97;4978217;28;20053;-75
2022/09/17 10:18:17;;;;;;;13.73;1.88;;;;;;;11.34;100.00;101345.44;4973664;28;20557;-75
2022/09/17 10:20:57;;;;;;;16.17;2.95;;;;;;;11.69;100.00;101355.84;4974657;28;20141;-74
2022/09/17 10:23:25;;;;;;;11.40;2.17;;;;;;;12.25;100.00;101340.88;4977949;28;20289;-75
2022/09/17 10:25:54;;;;;;;11.63;1.77;;;;;;;12.82;100.00;101340.81;4981043;28;20049;-75
2022/09/17 10:28:43;;;;;;;4.50;1.33;;;;;;;13.28;100.00;101335.13;4983596;28;20860;-74
2022/09/17 10:31:09;;;;;;;9.15;2.00;;;;;;;13.50;100.00;101339.03;4978819;28;20044;-74
2022/09/17 10:33:39;;;;;;;8.02;1.88;;;;;;;13.69;100.00;101342.19;4972610;28;20038;-75
2022/09/17 10:36:13;;;;;;;6.13;2.15;;;;;;;14.11;100.00;101354.47;4984655;28;20054;-74
2022/09/17 10:38:41;;;;;;;3.35;0.98;;;;;;;14.14;100.00;101351.53;4968471;28;20098;-75
2022/09/17 10:41:15;;;;;;;4.28;1.70;;;;;;;14.07;100.00;101362.81;4968827;28;20054;-75
2022/09/17 10:43:41;;;;;;;5.65;1.08;;;;;;;14.31;98.30;101352.16;4969232;28;20054;-74
2022/09/17 10:46:16;;;;;;;4.35;1.17;;;;;;;14.70;95.69;101357.41;4981029;28;20038;-75
2022/09/17 10:48:52;;;;;;;6.05;0.90;;;;;;;13.88;99.14;101356.03;4968850;28;20034;-75
2022/09/17 10:51:23;;;;;;;5.55;0.90;;;;;;;12.35;100.00;101379.47;4973706;28;20739;-77
2022/09/17 10:53:55;;;;;;;4.30;0.80;;;;;;;11.54;100.00;101387.00;4980362;28;20045;-75
2022/09/17 10:56:33;;;;;;;3.90;1.00;;;;;;;11.45;100.00;101394.72;4981510;28;20046;-76
2022/09/17 10:59:28;;;;;;;4.45;0.70;;;;;;;11.12;100.00;101377.84;4972381;28;20054;-76
2022/09/17 11:02:30;;;;;;;1.60;0.60;;;;;;;11.25;100.00;101375.34;4970504;28;20093;-76
2022/09/17 11:05:06;;;;;;;5.10;0.68;;;;;;;10.94;100.00;101360.22;4978588;28;20054;-75
2022/09/17 11:07:43;;;;;;;1.23;0.55;;;;;;;10.84;100.00;101359.00;4977458;28;20038;-76
2022/09/17 11:10:27;;;;;;;1.40;0.50;;;;;;;11.00;100.00;101351.88;4979086;28;20070;-75
2022/09/17 11:13:03;;;;;;;2.95;0.60;;;;;;;11.40;100.00;101346.91;4979844;28;20051;-77
2022/09/17 11:15:43;;;;;;;4.50;1.13;;;;;;;12.22;100.00;101329.50;4979523;28;20053;-77
2022/09/17 11:18:34;;;;;;;8.35;0.93;;;;;;;12.61;100.00;101323.47;4982064;28;20057;-76
2022/09/17 11:21:28;;;;;;;1.75;0.52;;;;;;;12.80;100.00;101325.78;4976986;28;20134;-77
2022/09/17 11:24:06;;;;;;;3.63;0.90;;;;;;;13.23;100.00;101318.50;4974962;28;20763;-76
2022/09/17 11:26:42;;;;;;;1.38;0.40;;;;;;;13.41;100.00;101314.59;4982134;28;20040;-76
2022/09/17 11:29:44;;;;;;;3.53;0.85;;;;;;;13.44;100.00;101311.69;4976789;28;20495;-76
2022/09/17 11:32:22;;;;;;;;;;;;;;;13.52;100.00;101311.19;4976011;28;20120;-76
2022/09/17 11:35:09;;;;;;;1.30;0.50;;;;;;;13.38;99.63;101314.78;4976298;28;20358;-78
2022/09/17 11:37:36;;;;;;;3.95;0.75;;;;;;;14.08;100.00;101311.75;4970788;28;20047;-76